Terminal Aerodrome Forecast
Issued by NWS

Home | Current Version | Previous Version | Text Only | Print | Product List | Glossary On
Versions: 1 2 3 4 5 6 7 8 9 10 11 12 13 14 15 16 17 18 19 20 21 22 23 24 25 26
000
FTUS43 KDTX 291906 AAA
TAFPTK
TAF AMD
KPTK 291906Z 2919/3018 22011KT P6SM SCT026 BKN035
      TEMPO 2919/2921 1 1/2SM TSRA BKN025CB
     FM292200 26011KT P6SM SCT030 BKN045
     FM300100 26009KT P6SM SCT070 SCT250
     FM300400 27006KT P6SM SKC
     FM301600 28016G24KT P6SM FEW045=

USA.gov is the U.S. government's official web portal to all federal, state and local government web resources and services.